Time,TemperatureF,DewpointF,PressureIn,WindDirection,WindDirectionDegrees,WindSpeedMPH,WindSpeedGustMPH,Humidity,HourlyPrecipIn,Conditions,Clouds,dailyrainin,SoftwareType,DateUTC
2013-05-25 00:00:00,47.6,43.0,29.80,SW,225,1.0,2.0,84,0.01,,,-99.99,WeatherLink 5.5,2013-05-25 04:00:00,
2013-05-25 00:05:00,47.6,43.0,29.80,SW,225,0.0,6.0,84,0.02,,,-99.99,WeatherLink 5.5,2013-05-25 04:05:00,
2013-05-25 00:10:00,47.4,42.8,29.80,South,180,0.0,4.0,84,0.02,,,-99.99,WeatherLink 5.5,2013-05-25 04:10:00,
2013-05-25 00:15:00,47.4,42.8,29.80,South,180,0.0,4.0,84,0.02,,,-99.99,WeatherLink 5.5,2013-05-25 04:15:00,
2013-05-25 00:20:00,47.4,42.8,29.79,WSW,247,1.0,4.0,84,0.02,,,-99.99,WeatherLink 5.5,2013-05-25 04:20:00,
2013-05-25 00:25:00,47.3,42.7,29.79,WSW,247,1.0,4.0,84,0.01,,,-99.99,WeatherLink 5.5,2013-05-25 04:25:00,
2013-05-25 00:30:00,47.3,42.7,29.79,WSW,247,1.0,4.0,84,0.01,,,-99.99,WeatherLink 5.5,2013-05-25 04:30:00,
2013-05-25 00:35:00,47.3,42.7,29.78,WSW,247,1.0,9.0,84,0.01,,,-99.99,WeatherLink 5.5,2013-05-25 04:35:00,
2013-05-25 00:40:00,47.3,42.7,29.78,WSW,247,1.0,6.0,84,0.01,,,-99.99,WeatherLink 5.5,2013-05-25 04:40:00,
2013-05-25 00:45:00,47.3,42.7,29.78,WSW,247,1.0,6.0,84,0.01,,,-99.99,WeatherLink 5.5,2013-05-25 04:45:00,
2013-05-25 00:50:00,47.3,42.7,29.79,WSW,247,0.0,2.0,84,0.01,,,-99.99,WeatherLink 5.5,2013-05-25 04:50:00,
2013-05-25 00:55:00,47.3,42.7,29.79,SSW,202,1.0,8.0,84,0.01,,,-99.99,WeatherLink 5.5,2013-05-25 04:55:00,
2013-05-25 01:00:00,47.3,42.7,29.79,SSW,202,1.0,8.0,84,0.01,,,-99.99,WeatherLink 5.5,2013-05-25 05:00:00,
2013-05-25 01:05:00,47.3,43.0,29.80,WNW,292,1.0,8.0,85,0.00,,,-99.99,WeatherLink 5.5,2013-05-25 05:05:00,
2013-05-25 01:10:00,47.3,43.0,29.80,West,270,1.0,4.0,85,0.01,,,-99.99,WeatherLink 5.5,2013-05-25 05:10:00,
2013-05-25 01:15:00,47.3,43.0,29.80,West,270,1.0,4.0,85,0.01,,,-99.99,WeatherLink 5.5,2013-05-25 05:15:00,
2013-05-25 01:20:00,47.3,43.0,29.78,West,270,1.0,6.0,85,0.01,,,-99.99,WeatherLink 5.5,2013-05-25 05:20:00,
2013-05-25 01:25:00,47.3,43.0,29.78,West,270,1.0,7.0,85,0.01,,,-99.99,WeatherLink 5.5,2013-05-25 05:25:00,
2013-05-25 01:30:00,47.3,43.0,29.78,West,270,1.0,7.0,85,0.01,,,-99.99,WeatherLink 5.5,2013-05-25 05:30:00,
2013-05-25 01:35:00,47.3,43.0,29.77,SW,225,1.0,4.0,85,0.01,,,-99.99,WeatherLink 5.5,2013-05-25 05:35:00,
2013-05-25 01:40:00,47.3,43.0,29.77,SW,225,0.0,1.0,85,0.02,,,-99.99,WeatherLink 5.5,2013-05-25 05:40:00,
2013-05-25 01:45:00,47.3,43.0,29.77,SW,225,0.0,1.0,85,0.02,,,-99.99,WeatherLink 5.5,2013-05-25 05:45:00,
2013-05-25 01:50:00,47.3,43.0,29.78,North,-999,0.0,0.0,85,0.02,,,-99.99,WeatherLink 5.5,2013-05-25 05:50:00,
2013-05-25 01:55:00,47.3,43.0,29.78,SW,225,0.0,1.0,85,0.02,,,-99.99,WeatherLink 5.5,2013-05-25 05:55:00,
2013-05-25 02:00:00,47.3,43.0,29.78,SW,225,0.0,1.0,85,0.02,,,-99.99,WeatherLink 5.5,2013-05-25 06:00:00,
2013-05-25 02:05:00,47.3,43.0,29.78,SSW,202,0.0,1.0,85,0.02,,,-99.99,WeatherLink 5.5,2013-05-25 06:05:00,
2013-05-25 02:10:00,47.3,43.0,29.78,WSW,247,1.0,7.0,85,0.01,,,-99.99,WeatherLink 5.5,2013-05-25 06:10:00,
2013-05-25 02:15:00,47.3,43.0,29.78,WSW,247,1.0,7.0,85,0.01,,,-99.99,WeatherLink 5.5,2013-05-25 06:15:00,
2013-05-25 02:20:00,47.3,43.0,29.78,South,180,0.0,1.0,85,0.01,,,-99.99,WeatherLink 5.5,2013-05-25 06:20:00,
2013-05-25 02:25:00,47.3,43.0,29.78,West,270,1.0,8.0,85,0.01,,,-99.99,WeatherLink 5.5,2013-05-25 06:25:00,
2013-05-25 02:30:00,47.3,43.0,29.78,West,270,1.0,8.0,85,0.01,,,-99.99,WeatherLink 5.5,2013-05-25 06:30:00,
2013-05-25 02:35:00,47.1,42.8,29.76,WSW,247,2.0,6.0,85,0.02,,,-99.99,WeatherLink 5.5,2013-05-25 06:35:00,
2013-05-25 02:40:00,47.1,42.8,29.76,WSW,247,2.0,4.0,85,0.01,,,-99.99,WeatherLink 5.5,2013-05-25 06:40:00,
2013-05-25 02:45:00,47.1,42.8,29.76,WSW,247,2.0,4.0,85,0.01,,,-99.99,WeatherLink 5.5,2013-05-25 06:45:00,
2013-05-25 02:50:00,47.1,42.8,29.76,West,270,1.0,7.0,85,0.01,,,-99.99,WeatherLink 5.5,2013-05-25 06:50:00,
2013-05-25 02:55:00,47.1,42.8,29.76,WSW,247,1.0,6.0,85,0.01,,,-99.99,WeatherLink 5.5,2013-05-25 06:55:00,
2013-05-25 03:00:00,47.1,42.8,29.76,WSW,247,1.0,6.0,85,0.01,,,-99.99,WeatherLink 5.5,2013-05-25 07:00:00,
2013-05-25 03:05:00,47.1,42.8,29.77,West,270,0.0,4.0,85,0.02,,,-99.99,WeatherLink 5.5,2013-05-25 07:05:00,
2013-05-25 03:10:00,47.1,42.8,29.77,WSW,247,2.0,6.0,85,0.02,,,-99.99,WeatherLink 5.5,2013-05-25 07:10:00,
2013-05-25 03:15:00,47.1,42.8,29.77,WSW,247,2.0,6.0,85,0.02,,,-99.99,WeatherLink 5.5,2013-05-25 07:15:00,
2013-05-25 03:20:00,47.3,43.0,29.75,WSW,247,1.0,7.0,85,0.02,,,-99.99,WeatherLink 5.5,2013-05-25 07:20:00,
2013-05-25 03:25:00,47.3,43.0,29.75,SW,225,0.0,4.0,85,0.03,,,-99.99,WeatherLink 5.5,2013-05-25 07:25:00,
2013-05-25 03:30:00,47.3,43.0,29.75,SW,225,0.0,4.0,85,0.03,,,-99.99,WeatherLink 5.5,2013-05-25 07:30:00,
2013-05-25 03:35:00,47.1,42.8,29.76,SW,225,1.0,4.0,85,0.02,,,-99.99,WeatherLink 5.5,2013-05-25 07:35:00,
2013-05-25 03:40:00,47.3,43.0,29.76,WSW,247,0.0,2.0,85,0.02,,,-99.99,WeatherLink 5.5,2013-05-25 07:40:00,
2013-05-25 03:45:00,47.3,43.0,29.76,WSW,247,0.0,2.0,85,0.02,,,-99.99,WeatherLink 5.5,2013-05-25 07:45:00,
2013-05-25 03:50:00,47.1,42.8,29.77,WSW,247,0.0,2.0,85,0.02,,,-99.99,WeatherLink 5.5,2013-05-25 07:50:00,
2013-05-25 03:55:00,47.1,42.8,29.77,WSW,247,0.0,1.0,85,0.02,,,-99.99,WeatherLink 5.5,2013-05-25 07:55:00,
2013-05-25 04:00:00,47.1,42.8,29.77,WSW,247,0.0,1.0,85,0.02,,,-99.99,WeatherLink 5.5,2013-05-25 08:00:00,
2013-05-25 04:05:00,47.1,42.8,29.76,WSW,247,0.0,4.0,85,0.01,,,-99.99,WeatherLink 5.5,2013-05-25 08:05:00,
2013-05-25 04:10:00,47.0,42.7,29.76,WSW,247,2.0,8.0,85,0.01,,,-99.99,WeatherLink 5.5,2013-05-25 08:10:00,
2013-05-25 04:15:00,47.0,42.7,29.76,WSW,247,2.0,8.0,85,0.01,,,-99.99,WeatherLink 5.5,2013-05-25 08:15:00,
2013-05-25 04:20:00,47.0,42.7,29.75,WSW,247,0.0,2.0,85,0.01,,,-99.99,WeatherLink 5.5,2013-05-25 08:20:00,
2013-05-25 04:25:00,47.0,42.7,29.75,NNW,337,1.0,7.0,85,0.00,,,-99.99,WeatherLink 5.5,2013-05-25 08:25:00,
2013-05-25 04:30:00,47.0,42.7,29.75,NNW,337,1.0,7.0,85,0.00,,,-99.99,WeatherLink 5.5,2013-05-25 08:30:00,
2013-05-25 04:35:00,47.0,42.7,29.75,SW,225,1.0,10.0,85,0.00,,,-99.99,WeatherLink 5.5,2013-05-25 08:35:00,
2013-05-25 04:40:00,47.0,42.7,29.75,SW,225,1.0,2.0,85,0.00,,,-99.99,WeatherLink 5.5,2013-05-25 08:40:00,
2013-05-25 04:45:00,47.0,42.7,29.75,SW,225,1.0,2.0,85,0.00,,,-99.99,WeatherLink 5.5,2013-05-25 08:45:00,
2013-05-25 04:50:00,46.8,42.5,29.75,SW,225,0.0,2.0,85,0.00,,,-99.99,WeatherLink 5.5,2013-05-25 08:50:00,
2013-05-25 04:55:00,46.8,42.5,29.75,SE,135,0.0,2.0,85,0.00,,,-99.99,WeatherLink 5.5,2013-05-25 08:55:00,
2013-05-25 05:00:00,46.8,42.5,29.75,SE,135,0.0,2.0,85,0.00,,,-99.99,WeatherLink 5.5,2013-05-25 09:00:00,
2013-05-25 05:05:00,46.8,42.5,29.74,WSW,247,1.0,6.0,85,0.00,,,-99.99,WeatherLink 5.5,2013-05-25 09:05:00,
2013-05-25 05:10:00,46.8,42.5,29.74,WSW,247,0.0,4.0,85,0.00,,,-99.99,WeatherLink 5.5,2013-05-25 09:10:00,
2013-05-25 05:15:00,46.8,42.5,29.74,WSW,247,0.0,4.0,85,0.00,,,-99.99,WeatherLink 5.5,2013-05-25 09:15:00,
2013-05-25 05:20:00,46.8,42.5,29.74,SSW,202,2.0,6.0,85,0.00,,,-99.99,WeatherLink 5.5,2013-05-25 09:20:00,
2013-05-25 05:25:00,46.8,42.5,29.74,SSW,202,0.0,7.0,85,0.00,,,-99.99,WeatherLink 5.5,2013-05-25 09:25:00,
2013-05-25 05:30:00,46.8,42.5,29.74,SSW,202,0.0,7.0,85,0.00,,,-99.99,WeatherLink 5.5,2013-05-25 09:30:00,
2013-05-25 05:35:00,46.7,42.4,29.74,WNW,292,0.0,4.0,85,0.00,,,-99.99,WeatherLink 5.5,2013-05-25 09:35:00,
2013-05-25 05:40:00,46.7,42.4,29.74,West,270,1.0,7.0,85,0.00,,,-99.99,WeatherLink 5.5,2013-05-25 09:40:00,
2013-05-25 05:45:00,46.7,42.4,29.74,West,270,1.0,7.0,85,0.00,,,-99.99,WeatherLink 5.5,2013-05-25 09:45:00,
2013-05-25 05:50:00,46.7,42.4,29.75,SW,225,0.0,1.0,85,0.00,,,-99.99,WeatherLink 5.5,2013-05-25 09:50:00,
2013-05-25 05:55:00,46.7,42.4,29.75,East,90,0.0,6.0,85,0.00,,,-99.99,WeatherLink 5.5,2013-05-25 09:55:00,
2013-05-25 06:00:00,46.7,42.4,29.75,East,90,0.0,6.0,85,0.00,,,-99.99,WeatherLink 5.5,2013-05-25 10:00:00,
2013-05-25 06:05:00,46.7,42.4,29.74,SW,225,0.0,2.0,85,0.00,,,-99.99,WeatherLink 5.5,2013-05-25 10:05:00,
2013-05-25 06:10:00,46.8,42.5,29.74,SW,225,1.0,6.0,85,0.00,,,-99.99,WeatherLink 5.5,2013-05-25 10:10:00,
2013-05-25 06:15:00,46.8,42.5,29.74,SW,225,1.0,6.0,85,0.00,,,-99.99,WeatherLink 5.5,2013-05-25 10:15:00,
2013-05-25 06:20:00,46.8,42.5,29.75,West,270,1.0,6.0,85,0.00,,,-99.99,WeatherLink 5.5,2013-05-25 10:20:00,
2013-05-25 06:25:00,46.8,42.5,29.75,WSW,247,0.0,4.0,85,0.00,,,-99.99,WeatherLink 5.5,2013-05-25 10:25:00,
2013-05-25 06:30:00,46.8,42.5,29.75,WSW,247,0.0,4.0,85,0.00,,,-99.99,WeatherLink 5.5,2013-05-25 10:30:00,
2013-05-25 06:35:00,46.8,42.5,29.75,West,270,2.0,7.0,85,0.00,,,-99.99,WeatherLink 5.5,2013-05-25 10:35:00,
2013-05-25 06:40:00,46.8,42.5,29.75,West,270,0.0,2.0,85,0.00,,,-99.99,WeatherLink 5.5,2013-05-25 10:40:00,
2013-05-25 06:45:00,46.8,42.5,29.75,West,270,0.0,2.0,85,0.00,,,-99.99,WeatherLink 5.5,2013-05-25 10:45:00,
2013-05-25 06:50:00,46.8,42.5,29.75,NW,315,1.0,7.0,85,0.00,,,-99.99,WeatherLink 5.5,2013-05-25 10:50:00,
2013-05-25 06:55:00,46.7,42.4,29.75,West,270,1.0,4.0,85,0.00,,,-99.99,WeatherLink 5.5,2013-05-25 10:55:00,
2013-05-25 07:00:00,46.7,42.4,29.75,West,270,1.0,4.0,85,0.00,,,-99.99,WeatherLink 5.5,2013-05-25 11:00:00,
2013-05-25 07:05:00,47.0,42.7,29.75,SW,225,1.0,6.0,85,0.00,,,-99.99,WeatherLink 5.5,2013-05-25 11:05:00,
2013-05-25 07:10:00,47.0,42.7,29.75,West,270,1.0,4.0,85,0.00,,,-99.99,WeatherLink 5.5,2013-05-25 11:10:00,
2013-05-25 07:15:00,47.0,42.7,29.75,West,270,1.0,4.0,85,0.00,,,-99.99,WeatherLink 5.5,2013-05-25 11:15:00,
2013-05-25 07:20:00,47.0,42.7,29.75,WSW,247,1.0,4.0,85,0.00,,,-99.99,WeatherLink 5.5,2013-05-25 11:20:00,
2013-05-25 07:25:00,47.0,42.7,29.75,West,270,1.0,6.0,85,0.00,,,-99.99,WeatherLink 5.5,2013-05-25 11:25:00,
2013-05-25 07:30:00,47.0,42.7,29.75,West,270,1.0,6.0,85,0.00,,,-99.99,WeatherLink 5.5,2013-05-25 11:30:00,
2013-05-25 07:35:00,47.0,42.7,29.75,West,270,2.0,7.0,85,0.00,,,-99.99,WeatherLink 5.5,2013-05-25 11:35:00,
2013-05-25 07:40:00,46.8,42.5,29.75,West,270,2.0,9.0,85,0.00,,,-99.99,WeatherLink 5.5,2013-05-25 11:40:00,
2013-05-25 07:45:00,46.8,42.5,29.75,West,270,2.0,9.0,85,0.00,,,-99.99,WeatherLink 5.5,2013-05-25 11:45:00,
2013-05-25 07:50:00,46.7,42.4,29.74,West,270,2.0,6.0,85,0.00,,,-99.99,WeatherLink 5.5,2013-05-25 11:50:00,
2013-05-25 07:55:00,46.8,42.5,29.74,SW,225,0.0,6.0,85,0.00,,,-99.99,WeatherLink 5.5,2013-05-25 11:55:00,
2013-05-25 08:00:00,46.8,42.5,29.74,SW,225,0.0,6.0,85,0.00,,,-99.99,WeatherLink 5.5,2013-05-25 12:00:00,
2013-05-25 08:05:00,47.1,42.8,29.75,WSW,247,2.0,4.0,85,0.00,,,-99.99,WeatherLink 5.5,2013-05-25 12:05:00,
2013-05-25 08:10:00,47.1,42.8,29.75,WSW,247,0.0,6.0,85,0.00,,,-99.99,WeatherLink 5.5,2013-05-25 12:10:00,
2013-05-25 08:15:00,47.1,42.8,29.75,WSW,247,0.0,6.0,85,0.00,,,-99.99,WeatherLink 5.5,2013-05-25 12:15:00,
2013-05-25 08:20:00,47.0,42.7,29.75,SW,225,1.0,6.0,85,0.00,,,-99.99,WeatherLink 5.5,2013-05-25 12:20:00,
2013-05-25 08:25:00,47.1,42.8,29.75,SW,225,2.0,6.0,85,0.00,,,-99.99,WeatherLink 5.5,2013-05-25 12:25:00,
2013-05-25 08:30:00,47.1,42.8,29.75,SW,225,2.0,6.0,85,0.00,,,-99.99,WeatherLink 5.5,2013-05-25 12:30:00,
2013-05-25 08:35:00,47.0,42.7,29.74,West,270,1.0,8.0,85,0.00,,,-99.99,WeatherLink 5.5,2013-05-25 12:35:00,
2013-05-25 08:40:00,47.1,42.8,29.74,NNW,337,0.0,4.0,85,0.00,,,-99.99,WeatherLink 5.5,2013-05-25 12:40:00,
2013-05-25 08:45:00,47.1,42.8,29.74,NNW,337,0.0,4.0,85,0.00,,,-99.99,WeatherLink 5.5,2013-05-25 12:45:00,
2013-05-25 08:50:00,47.1,42.8,29.74,SSW,202,1.0,6.0,85,0.00,,,-99.99,WeatherLink 5.5,2013-05-25 12:50:00,
2013-05-25 08:55:00,47.3,43.0,29.74,SSW,202,2.0,7.0,85,0.00,,,-99.99,WeatherLink 5.5,2013-05-25 12:55:00,
2013-05-25 09:00:00,47.3,43.0,29.74,SSW,202,2.0,7.0,85,0.00,,,-99.99,WeatherLink 5.5,2013-05-25 13:00:00,
2013-05-25 09:05:00,47.4,43.1,29.74,West,270,3.0,9.0,85,0.00,,,-99.99,WeatherLink 5.5,2013-05-25 13:05:00,
2013-05-25 09:10:00,47.6,43.3,29.74,West,270,0.0,4.0,85,0.00,,,-99.99,WeatherLink 5.5,2013-05-25 13:10:00,
2013-05-25 09:15:00,47.6,43.3,29.74,West,270,0.0,4.0,85,0.00,,,-99.99,WeatherLink 5.5,2013-05-25 13:15:00,
2013-05-25 09:20:00,47.6,43.3,29.74,NW,315,0.0,7.0,85,0.00,,,-99.99,WeatherLink 5.5,2013-05-25 13:20:00,
2013-05-25 09:25:00,47.6,43.3,29.74,WSW,247,1.0,4.0,85,0.00,,,-99.99,WeatherLink 5.5,2013-05-25 13:25:00,
2013-05-25 09:30:00,47.6,43.3,29.74,WSW,247,1.0,4.0,85,0.00,,,-99.99,WeatherLink 5.5,2013-05-25 13:30:00,
2013-05-25 09:35:00,47.6,43.3,29.73,West,270,0.0,2.0,85,0.00,,,-99.99,WeatherLink 5.5,2013-05-25 13:35:00,
2013-05-25 09:40:00,47.7,43.4,29.73,West,270,1.0,4.0,85,0.00,,,-99.99,WeatherLink 5.5,2013-05-25 13:40:00,
2013-05-25 09:45:00,47.7,43.4,29.73,West,270,1.0,4.0,85,0.00,,,-99.99,WeatherLink 5.5,2013-05-25 13:45:00,
2013-05-25 09:50:00,47.9,43.6,29.73,SW,225,0.0,2.0,85,0.00,,,-99.99,WeatherLink 5.5,2013-05-25 13:50:00,
2013-05-25 09:55:00,47.7,43.4,29.73,SW,225,2.0,7.0,85,0.00,,,-99.99,WeatherLink 5.5,2013-05-25 13:55:00,
2013-05-25 10:00:00,47.7,43.4,29.73,SW,225,2.0,7.0,85,0.00,,,-99.99,WeatherLink 5.5,2013-05-25 14:00:00,
2013-05-25 10:05:00,47.6,43.3,29.73,WNW,292,2.0,11.0,85,0.00,,,-99.99,WeatherLink 5.5,2013-05-25 14:05:00,
2013-05-25 10:10:00,47.7,43.4,29.73,WSW,247,2.0,7.0,85,0.00,,,-99.99,WeatherLink 5.5,2013-05-25 14:10:00,
2013-05-25 10:15:00,47.7,43.4,29.73,WSW,247,2.0,7.0,85,0.00,,,-99.99,WeatherLink 5.5,2013-05-25 14:15:00,
2013-05-25 10:20:00,47.9,43.6,29.73,SW,225,2.0,8.0,85,0.00,,,-99.99,WeatherLink 5.5,2013-05-25 14:20:00,
2013-05-25 10:25:00,48.0,43.7,29.73,West,270,1.0,4.0,85,0.00,,,-99.99,WeatherLink 5.5,2013-05-25 14:25:00,
2013-05-25 10:30:00,48.0,43.7,29.73,West,270,1.0,4.0,85,0.00,,,-99.99,WeatherLink 5.5,2013-05-25 14:30:00,
2013-05-25 10:35:00,48.2,43.9,29.73,SW,225,2.0,8.0,85,0.00,,,-99.99,WeatherLink 5.5,2013-05-25 14:35:00,
2013-05-25 10:40:00,48.0,43.7,29.73,WNW,292,4.0,9.0,85,0.00,,,-99.99,WeatherLink 5.5,2013-05-25 14:40:00,
2013-05-25 10:45:00,48.0,43.7,29.73,WNW,292,4.0,9.0,85,0.00,,,-99.99,WeatherLink 5.5,2013-05-25 14:45:00,
2013-05-25 10:50:00,48.0,43.7,29.72,SW,225,1.0,4.0,85,0.00,,,-99.99,WeatherLink 5.5,2013-05-25 14:50:00,
2013-05-25 10:55:00,48.2,43.9,29.72,WSW,247,1.0,4.0,85,0.00,,,-99.99,WeatherLink 5.5,2013-05-25 14:55:00,
2013-05-25 11:00:00,48.2,43.9,29.72,WSW,247,1.0,4.0,85,0.00,,,-99.99,WeatherLink 5.5,2013-05-25 15:00:00,
2013-05-25 11:05:00,48.0,43.7,29.72,NW,315,3.0,10.0,85,0.00,,,-99.99,WeatherLink 5.5,2013-05-25 15:05:00,
2013-05-25 11:10:00,47.9,43.6,29.72,WNW,292,2.0,8.0,85,0.00,,,-99.99,WeatherLink 5.5,2013-05-25 15:10:00,
2013-05-25 11:15:00,47.9,43.6,29.72,WNW,292,2.0,8.0,85,0.00,,,-99.99,WeatherLink 5.5,2013-05-25 15:15:00,
2013-05-25 11:20:00,48.0,43.7,29.71,WSW,247,2.0,7.0,85,0.00,,,-99.99,WeatherLink 5.5,2013-05-25 15:20:00,
2013-05-25 11:25:00,48.0,43.7,29.71,WSW,247,4.0,10.0,85,0.00,,,-99.99,WeatherLink 5.5,2013-05-25 15:25:00,
2013-05-25 11:30:00,48.0,43.7,29.71,WSW,247,4.0,10.0,85,0.00,,,-99.99,WeatherLink 5.5,2013-05-25 15:30:00,
2013-05-25 11:35:00,48.3,44.0,29.71,WSW,247,2.0,9.0,85,0.00,,,-99.99,WeatherLink 5.5,2013-05-25 15:35:00,
2013-05-25 11:40:00,48.5,44.2,29.71,WNW,292,2.0,8.0,85,0.00,,,-99.99,WeatherLink 5.5,2013-05-25 15:40:00,
2013-05-25 11:45:00,48.5,44.2,29.71,WNW,292,2.0,8.0,85,0.00,,,-99.99,WeatherLink 5.5,2013-05-25 15:45:00,
2013-05-25 11:50:00,48.3,43.7,29.71,WSW,247,4.0,11.0,84,0.00,,,-99.99,WeatherLink 5.5,2013-05-25 15:50:00,
2013-05-25 11:55:00,48.2,43.6,29.71,WNW,292,3.0,9.0,84,0.00,,,-99.99,WeatherLink 5.5,2013-05-25 15:55:00,
2013-05-25 12:00:00,48.2,43.6,29.71,WNW,292,3.0,9.0,84,0.00,,,-99.99,WeatherLink 5.5,2013-05-25 16:00:00,
2013-05-25 12:05:00,48.2,43.6,29.71,North,0,2.0,6.0,84,0.00,,,-99.99,WeatherLink 5.5,2013-05-25 16:05:00,
2013-05-25 12:10:00,48.2,43.6,29.71,WSW,247,4.0,11.0,84,0.00,,,-99.99,WeatherLink 5.5,2013-05-25 16:10:00,
2013-05-25 12:15:00,48.2,43.6,29.71,WSW,247,4.0,11.0,84,0.00,,,-99.99,WeatherLink 5.5,2013-05-25 16:15:00,
2013-05-25 12:20:00,48.3,43.7,29.71,WSW,247,2.0,9.0,84,0.00,,,-99.99,WeatherLink 5.5,2013-05-25 16:20:00,
2013-05-25 12:25:00,48.3,43.7,29.71,WNW,292,3.0,8.0,84,0.00,,,-99.99,WeatherLink 5.5,2013-05-25 16:25:00,
2013-05-25 12:30:00,48.3,43.7,29.71,WNW,292,3.0,8.0,84,0.00,,,-99.99,WeatherLink 5.5,2013-05-25 16:30:00,
2013-05-25 12:35:00,48.5,43.9,29.70,WNW,292,2.0,9.0,84,0.00,,,-99.99,WeatherLink 5.5,2013-05-25 16:35:00,
2013-05-25 12:40:00,48.8,44.2,29.70,SW,225,2.0,7.0,84,0.00,,,-99.99,WeatherLink 5.5,2013-05-25 16:40:00,
2013-05-25 12:45:00,48.8,44.2,29.70,SW,225,2.0,7.0,84,0.00,,,-99.99,WeatherLink 5.5,2013-05-25 16:45:00,
2013-05-25 12:50:00,49.5,44.9,29.69,WSW,247,1.0,6.0,84,0.00,,,-99.99,WeatherLink 5.5,2013-05-25 16:50:00,
2013-05-25 12:55:00,49.3,44.7,29.69,WSW,247,1.0,7.0,84,0.00,,,-99.99,WeatherLink 5.5,2013-05-25 16:55:00,
2013-05-25 13:00:00,49.3,44.7,29.69,WSW,247,1.0,7.0,84,0.00,,,-99.99,WeatherLink 5.5,2013-05-25 17:00:00,
2013-05-25 13:05:00,49.1,44.2,29.69,WNW,292,3.0,8.0,83,0.00,,,-99.99,WeatherLink 5.5,2013-05-25 17:05:00,
2013-05-25 13:10:00,49.1,44.2,29.69,South,180,1.0,6.0,83,0.00,,,-99.99,WeatherLink 5.5,2013-05-25 17:10:00,
2013-05-25 13:15:00,49.1,44.2,29.69,South,180,1.0,6.0,83,0.00,,,-99.99,WeatherLink 5.5,2013-05-25 17:15:00,
2013-05-25 13:20:00,48.6,43.4,29.69,SW,225,4.0,14.0,82,0.00,,,-99.99,WeatherLink 5.5,2013-05-25 17:20:00,
2013-05-25 13:25:00,48.5,43.3,29.69,West,270,2.0,7.0,82,0.00,,,-99.99,WeatherLink 5.5,2013-05-25 17:25:00,
2013-05-25 13:30:00,48.5,43.3,29.69,West,270,2.0,7.0,82,0.00,,,-99.99,WeatherLink 5.5,2013-05-25 17:30:00,
2013-05-25 13:35:00,48.6,43.4,29.70,WNW,292,2.0,6.0,82,0.00,,,-99.99,WeatherLink 5.5,2013-05-25 17:35:00,
2013-05-25 13:40:00,48.6,43.4,29.70,West,270,2.0,7.0,82,0.00,,,-99.99,WeatherLink 5.5,2013-05-25 17:40:00,
2013-05-25 13:45:00,48.6,43.4,29.70,West,270,2.0,7.0,82,0.00,,,-99.99,WeatherLink 5.5,2013-05-25 17:45:00,
2013-05-25 13:50:00,48.6,43.4,29.70,SSE,157,1.0,4.0,82,0.00,,,-99.99,WeatherLink 5.5,2013-05-25 17:50:00,
2013-05-25 13:55:00,48.8,43.5,29.70,SSE,157,0.0,2.0,82,0.00,,,-99.99,WeatherLink 5.5,2013-05-25 17:55:00,
2013-05-25 14:00:00,48.8,43.5,29.70,SSE,157,0.0,2.0,82,0.00,,,-99.99,WeatherLink 5.5,2013-05-25 18:00:00,
2013-05-25 14:05:00,48.9,43.6,29.70,SSW,202,0.0,4.0,82,0.00,,,-99.99,WeatherLink 5.5,2013-05-25 18:05:00,
2013-05-25 14:10:00,48.9,43.6,29.70,SSW,202,1.0,6.0,82,0.00,,,-99.99,WeatherLink 5.5,2013-05-25 18:10:00,
2013-05-25 14:15:00,48.9,43.6,29.70,SSW,202,1.0,6.0,82,0.00,,,-99.99,WeatherLink 5.5,2013-05-25 18:15:00,
2013-05-25 14:20:00,48.5,43.3,29.70,WNW,292,3.0,8.0,82,0.00,,,-99.99,WeatherLink 5.5,2013-05-25 18:20:00,
2013-05-25 14:25:00,48.5,43.3,29.70,West,270,2.0,8.0,82,0.00,,,-99.99,WeatherLink 5.5,2013-05-25 18:25:00,
2013-05-25 14:30:00,48.5,43.3,29.70,West,270,2.0,8.0,82,0.00,,,-99.99,WeatherLink 5.5,2013-05-25 18:30:00,
2013-05-25 14:35:00,47.7,42.5,29.70,WNW,292,6.0,11.0,82,0.00,,,-99.99,WeatherLink 5.5,2013-05-25 18:35:00,
2013-05-25 14:40:00,47.4,42.2,29.70,WNW,292,4.0,10.0,82,0.00,,,-99.99,WeatherLink 5.5,2013-05-25 18:40:00,
2013-05-25 14:45:00,47.4,42.2,29.70,WNW,292,4.0,10.0,82,0.00,,,-99.99,WeatherLink 5.5,2013-05-25 18:45:00,
2013-05-25 14:50:00,47.1,41.9,29.70,West,270,7.0,15.0,82,0.00,,,-99.99,WeatherLink 5.5,2013-05-25 18:50:00,
2013-05-25 14:55:00,47.1,42.2,29.70,WSW,247,3.0,16.0,83,0.00,,,-99.99,WeatherLink 5.5,2013-05-25 18:55:00,
2013-05-25 15:00:00,47.1,42.2,29.70,WSW,247,3.0,16.0,83,0.00,,,-99.99,WeatherLink 5.5,2013-05-25 19:00:00,
2013-05-25 15:05:00,47.0,42.1,29.70,SW,225,4.0,8.0,83,0.00,,,-99.99,WeatherLink 5.5,2013-05-25 19:05:00,
2013-05-25 15:10:00,47.0,42.1,29.70,WSW,247,3.0,7.0,83,0.00,,,-99.99,WeatherLink 5.5,2013-05-25 19:10:00,
2013-05-25 15:15:00,47.0,42.1,29.70,WSW,247,3.0,7.0,83,0.00,,,-99.99,WeatherLink 5.5,2013-05-25 19:15:00,
2013-05-25 15:20:00,46.5,41.6,29.70,WNW,292,3.0,10.0,83,0.00,,,-99.99,WeatherLink 5.5,2013-05-25 19:20:00,
2013-05-25 15:25:00,46.2,41.0,29.70,WNW,292,4.0,10.0,82,0.00,,,-99.99,WeatherLink 5.5,2013-05-25 19:25:00,
2013-05-25 15:30:00,46.2,41.0,29.70,WNW,292,4.0,10.0,82,0.00,,,-99.99,WeatherLink 5.5,2013-05-25 19:30:00,
2013-05-25 15:35:00,45.9,40.7,29.70,WSW,247,2.0,13.0,82,0.00,,,-99.99,WeatherLink 5.5,2013-05-25 19:35:00,
2013-05-25 15:40:00,45.9,40.7,29.70,WNW,292,3.0,9.0,82,0.00,,,-99.99,WeatherLink 5.5,2013-05-25 19:40:00,
2013-05-25 15:45:00,45.9,40.7,29.70,WNW,292,3.0,9.0,82,0.00,,,-99.99,WeatherLink 5.5,2013-05-25 19:45:00,
2013-05-25 15:50:00,45.5,40.3,29.70,SW,225,5.0,10.0,82,0.00,,,-99.99,WeatherLink 5.5,2013-05-25 19:50:00,
2013-05-25 15:55:00,45.4,40.2,29.70,SW,225,4.0,13.0,82,0.00,,,-99.99,WeatherLink 5.5,2013-05-25 19:55:00,
2013-05-25 16:00:00,45.4,40.2,29.70,SW,225,4.0,13.0,82,0.00,,,-99.99,WeatherLink 5.5,2013-05-25 20:00:00,
2013-05-25 16:05:00,45.1,39.9,29.70,WSW,247,4.0,13.0,82,0.00,,,-99.99,WeatherLink 5.5,2013-05-25 20:05:00,
2013-05-25 16:10:00,44.8,39.6,29.70,WNW,292,6.0,14.0,82,0.00,,,-99.99,WeatherLink 5.5,2013-05-25 20:10:00,
2013-05-25 16:15:00,44.8,39.6,29.70,WNW,292,6.0,14.0,82,0.00,,,-99.99,WeatherLink 5.5,2013-05-25 20:15:00,
2013-05-25 16:20:00,44.5,39.3,29.70,SW,225,2.0,7.0,82,0.00,,,-99.99,WeatherLink 5.5,2013-05-25 20:20:00,
2013-05-25 16:25:00,44.5,39.3,29.70,West,270,4.0,8.0,82,0.00,,,-99.99,WeatherLink 5.5,2013-05-25 20:25:00,
2013-05-25 16:30:00,44.5,39.3,29.70,West,270,4.0,8.0,82,0.00,,,-99.99,WeatherLink 5.5,2013-05-25 20:30:00,
2013-05-25 16:35:00,44.5,39.3,29.70,West,270,2.0,7.0,82,0.00,,,-99.99,WeatherLink 5.5,2013-05-25 20:35:00,
2013-05-25 16:40:00,44.3,38.8,29.70,SW,225,1.0,7.0,81,0.00,,,-99.99,WeatherLink 5.5,2013-05-25 20:40:00,
2013-05-25 16:45:00,44.3,38.8,29.70,SW,225,1.0,7.0,81,0.00,,,-99.99,WeatherLink 5.5,2013-05-25 20:45:00,
2013-05-25 16:50:00,44.0,38.5,29.71,WNW,292,6.0,16.0,81,0.00,,,-99.99,WeatherLink 5.5,2013-05-25 20:50:00,
2013-05-25 16:55:00,43.9,38.4,29.71,SW,225,6.0,15.0,81,0.00,,,-99.99,WeatherLink 5.5,2013-05-25 20:55:00,
2013-05-25 17:00:00,43.9,38.4,29.71,SW,225,6.0,15.0,81,0.00,,,-99.99,WeatherLink 5.5,2013-05-25 21:00:00,
2013-05-25 17:05:00,43.9,38.8,29.70,SW,225,3.0,8.0,82,0.00,,,-99.99,WeatherLink 5.5,2013-05-25 21:05:00,
2013-05-25 17:10:00,43.8,38.3,29.70,WSW,247,4.0,14.0,81,0.00,,,-99.99,WeatherLink 5.5,2013-05-25 21:10:00,
2013-05-25 17:15:00,43.8,38.3,29.70,WSW,247,4.0,14.0,81,0.00,,,-99.99,WeatherLink 5.5,2013-05-25 21:15:00,
2013-05-25 17:20:00,43.5,38.1,29.70,WSW,247,4.0,13.0,81,0.00,,,-99.99,WeatherLink 5.5,2013-05-25 21:20:00,
2013-05-25 17:25:00,43.5,38.1,29.70,NW,315,4.0,8.0,81,0.00,,,-99.99,WeatherLink 5.5,2013-05-25 21:25:00,
2013-05-25 17:30:00,43.5,38.1,29.70,NW,315,4.0,8.0,81,0.00,,,-99.99,WeatherLink 5.5,2013-05-25 21:30:00,
2013-05-25 17:35:00,43.3,37.9,29.71,WSW,247,2.0,8.0,81,0.00,,,-99.99,WeatherLink 5.5,2013-05-25 21:35:00,
2013-05-25 17:40:00,43.3,37.9,29.71,SW,225,3.0,6.0,81,0.00,,,-99.99,WeatherLink 5.5,2013-05-25 21:40:00,
2013-05-25 17:45:00,43.3,37.9,29.71,SW,225,3.0,6.0,81,0.00,,,-99.99,WeatherLink 5.5,2013-05-25 21:45:00,
2013-05-25 17:50:00,43.0,37.3,29.71,West,270,6.0,22.0,80,0.00,,,-99.99,WeatherLink 5.5,2013-05-25 21:50:00,
2013-05-25 17:55:00,43.0,37.3,29.71,SSW,202,2.0,10.0,80,0.00,,,-99.99,WeatherLink 5.5,2013-05-25 21:55:00,
2013-05-25 18:00:00,43.0,37.3,29.71,SSW,202,2.0,10.0,80,0.00,,,-99.99,WeatherLink 5.5,2013-05-25 22:00:00,
2013-05-25 18:05:00,42.9,37.5,29.71,SW,225,2.0,7.0,81,0.00,,,-99.99,WeatherLink 5.5,2013-05-25 22:05:00,
2013-05-25 18:10:00,42.9,37.5,29.71,WSW,247,3.0,11.0,81,0.00,,,-99.99,WeatherLink 5.5,2013-05-25 22:10:00,
2013-05-25 18:15:00,42.9,37.5,29.71,WSW,247,3.0,11.0,81,0.00,,,-99.99,WeatherLink 5.5,2013-05-25 22:15:00,
2013-05-25 18:20:00,42.6,37.2,29.71,WSW,247,5.0,14.0,81,0.00,,,-99.99,WeatherLink 5.5,2013-05-25 22:20:00,
2013-05-25 18:25:00,42.5,37.1,29.71,West,270,4.0,10.0,81,0.00,,,-99.99,WeatherLink 5.5,2013-05-25 22:25:00,
2013-05-25 18:30:00,42.5,37.1,29.71,West,270,4.0,10.0,81,0.00,,,-99.99,WeatherLink 5.5,2013-05-25 22:30:00,
2013-05-25 18:35:00,42.3,36.9,29.71,SW,225,3.0,8.0,81,0.00,,,-99.99,WeatherLink 5.5,2013-05-25 22:35:00,
2013-05-25 18:40:00,42.2,36.8,29.71,West,270,4.0,11.0,81,0.00,,,-99.99,WeatherLink 5.5,2013-05-25 22:40:00,
2013-05-25 18:45:00,42.2,36.8,29.71,West,270,4.0,11.0,81,0.00,,,-99.99,WeatherLink 5.5,2013-05-25 22:45:00,
2013-05-25 18:50:00,42.0,36.6,29.72,SW,225,4.0,13.0,81,0.00,,,-99.99,WeatherLink 5.5,2013-05-25 22:50:00,
2013-05-25 18:55:00,41.9,36.5,29.72,WNW,292,6.0,14.0,81,0.00,,,-99.99,WeatherLink 5.5,2013-05-25 22:55:00,
2013-05-25 19:00:00,41.9,36.5,29.72,WNW,292,6.0,14.0,81,0.00,,,-99.99,WeatherLink 5.5,2013-05-25 23:00:00,
2013-05-25 19:05:00,41.8,36.4,29.72,WNW,292,6.0,18.0,81,0.00,,,-99.99,WeatherLink 5.5,2013-05-25 23:05:00,
2013-05-25 19:10:00,41.8,36.4,29.72,WSW,247,3.0,10.0,81,0.00,,,-99.99,WeatherLink 5.5,2013-05-25 23:10:00,
2013-05-25 19:15:00,41.8,36.4,29.72,WSW,247,3.0,10.0,81,0.00,,,-99.99,WeatherLink 5.5,2013-05-25 23:15:00,
2013-05-25 19:20:00,41.6,36.2,29.72,NW,315,3.0,9.0,81,0.00,,,-99.99,WeatherLink 5.5,2013-05-25 23:20:00,
2013-05-25 19:25:00,41.6,36.2,29.72,West,270,4.0,9.0,81,0.00,,,-99.99,WeatherLink 5.5,2013-05-25 23:25:00,
2013-05-25 19:30:00,41.6,36.2,29.72,West,270,4.0,9.0,81,0.00,,,-99.99,WeatherLink 5.5,2013-05-25 23:30:00,
2013-05-25 19:35:00,41.5,36.1,29.73,SW,225,3.0,8.0,81,0.00,,,-99.99,WeatherLink 5.5,2013-05-25 23:35:00,
2013-05-25 19:40:00,41.5,35.8,29.73,WNW,292,4.0,14.0,80,0.00,,,-99.99,WeatherLink 5.5,2013-05-25 23:40:00,
2013-05-25 19:45:00,41.5,35.8,29.73,WNW,292,4.0,14.0,80,0.00,,,-99.99,WeatherLink 5.5,2013-05-25 23:45:00,
2013-05-25 19:50:00,41.6,35.9,29.72,WNW,292,2.0,4.0,80,0.00,,,-99.99,WeatherLink 5.5,2013-05-25 23:50:00,
2013-05-25 19:55:00,41.6,35.6,29.72,WNW,292,2.0,8.0,79,0.00,,,-99.99,WeatherLink 5.5,2013-05-25 23:55:00,
2013-05-25 20:00:00,41.6,35.6,29.72,WNW,292,2.0,8.0,79,0.00,,,-99.99,WeatherLink 5.5,2013-05-26 00:00:00,
2013-05-25 20:05:00,41.6,35.6,29.72,WNW,292,4.0,10.0,79,0.00,,,-99.99,WeatherLink 5.5,2013-05-26 00:05:00,
2013-05-25 20:10:00,41.6,35.2,29.72,West,270,5.0,8.0,78,0.00,,,-99.99,WeatherLink 5.5,2013-05-26 00:10:00,
2013-05-25 20:15:00,41.6,35.2,29.72,West,270,5.0,8.0,78,0.00,,,-99.99,WeatherLink 5.5,2013-05-26 00:15:00,
2013-05-25 20:20:00,41.6,35.2,29.73,WSW,247,3.0,9.0,78,0.00,,,-99.99,WeatherLink 5.5,2013-05-26 00:20:00,
2013-05-25 20:25:00,41.8,35.4,29.73,WSW,247,1.0,6.0,78,0.00,,,-99.99,WeatherLink 5.5,2013-05-26 00:25:00,
2013-05-25 20:30:00,41.8,35.4,29.73,WSW,247,1.0,6.0,78,0.00,,,-99.99,WeatherLink 5.5,2013-05-26 00:30:00,
2013-05-25 20:35:00,41.8,35.1,29.72,WSW,247,5.0,13.0,77,0.00,,,-99.99,WeatherLink 5.5,2013-05-26 00:35:00,
2013-05-25 20:40:00,41.8,35.1,29.72,SW,225,2.0,8.0,77,0.00,,,-99.99,WeatherLink 5.5,2013-05-26 00:40:00,
2013-05-25 20:45:00,41.8,35.1,29.72,SW,225,2.0,8.0,77,0.00,,,-99.99,WeatherLink 5.5,2013-05-26 00:45:00,
2013-05-25 20:50:00,41.8,35.1,29.72,WSW,247,2.0,6.0,77,0.00,,,-99.99,WeatherLink 5.5,2013-05-26 00:50:00,
2013-05-25 20:55:00,41.8,35.1,29.72,SW,225,4.0,13.0,77,0.00,,,-99.99,WeatherLink 5.5,2013-05-26 00:55:00,
2013-05-25 21:00:00,41.8,35.1,29.72,SW,225,4.0,13.0,77,0.00,,,-99.99,WeatherLink 5.5,2013-05-26 01:00:00,
2013-05-25 21:05:00,41.8,35.1,29.73,SW,225,4.0,13.0,77,0.00,,,-99.99,WeatherLink 5.5,2013-05-26 01:05:00,
2013-05-25 21:10:00,41.6,35.2,29.73,WSW,247,4.0,9.0,78,0.00,,,-99.99,WeatherLink 5.5,2013-05-26 01:10:00,
2013-05-25 21:15:00,41.6,35.2,29.73,WSW,247,4.0,9.0,78,0.00,,,-99.99,WeatherLink 5.5,2013-05-26 01:15:00,
2013-05-25 21:20:00,41.5,35.2,29.73,SW,225,5.0,15.0,78,0.00,,,-99.99,WeatherLink 5.5,2013-05-26 01:20:00,
2013-05-25 21:25:00,41.5,35.2,29.73,SW,225,3.0,14.0,78,0.00,,,-99.99,WeatherLink 5.5,2013-05-26 01:25:00,
2013-05-25 21:30:00,41.5,35.2,29.73,SW,225,3.0,14.0,78,0.00,,,-99.99,WeatherLink 5.5,2013-05-26 01:30:00,
2013-05-25 21:35:00,41.5,35.2,29.73,West,270,3.0,10.0,78,0.00,,,-99.99,WeatherLink 5.5,2013-05-26 01:35:00,
2013-05-25 21:40:00,41.5,34.8,29.73,WSW,247,3.0,7.0,77,0.00,,,-99.99,WeatherLink 5.5,2013-05-26 01:40:00,
2013-05-25 21:45:00,41.5,34.8,29.73,WSW,247,3.0,7.0,77,0.00,,,-99.99,WeatherLink 5.5,2013-05-26 01:45:00,
2013-05-25 21:50:00,41.5,34.8,29.73,WNW,292,5.0,17.0,77,0.00,,,-99.99,WeatherLink 5.5,2013-05-26 01:50:00,
2013-05-25 21:55:00,41.5,34.8,29.73,WSW,247,3.0,10.0,77,0.00,,,-99.99,WeatherLink 5.5,2013-05-26 01:55:00,
2013-05-25 22:00:00,41.5,34.8,29.73,WSW,247,3.0,10.0,77,0.00,,,-99.99,WeatherLink 5.5,2013-05-26 02:00:00,
2013-05-25 22:05:00,41.5,34.5,29.73,WSW,247,4.0,10.0,76,0.00,,,-99.99,WeatherLink 5.5,2013-05-26 02:05:00,
2013-05-25 22:10:00,41.3,34.3,29.73,WSW,247,6.0,18.0,76,0.00,,,-99.99,WeatherLink 5.5,2013-05-26 02:10:00,
2013-05-25 22:15:00,41.3,34.3,29.73,WSW,247,6.0,18.0,76,0.00,,,-99.99,WeatherLink 5.5,2013-05-26 02:15:00,
2013-05-25 22:20:00,41.3,34.3,29.73,SW,225,2.0,6.0,76,0.00,,,-99.99,WeatherLink 5.5,2013-05-26 02:20:00,
2013-05-25 22:25:00,41.3,34.0,29.73,WSW,247,3.0,10.0,75,0.00,,,-99.99,WeatherLink 5.5,2013-05-26 02:25:00,
2013-05-25 22:30:00,41.3,34.0,29.73,WSW,247,3.0,10.0,75,0.00,,,-99.99,WeatherLink 5.5,2013-05-26 02:30:00,
2013-05-25 22:35:00,41.2,33.9,29.73,SW,225,5.0,9.0,75,0.00,,,-99.99,WeatherLink 5.5,2013-05-26 02:35:00,
2013-05-25 22:40:00,41.2,33.5,29.73,SW,225,2.0,8.0,74,0.00,,,-99.99,WeatherLink 5.5,2013-05-26 02:40:00,
2013-05-25 22:45:00,41.2,33.5,29.73,SW,225,2.0,8.0,74,0.00,,,-99.99,WeatherLink 5.5,2013-05-26 02:45:00,
2013-05-25 22:50:00,41.0,33.3,29.73,SW,225,3.0,9.0,74,0.00,,,-99.99,WeatherLink 5.5,2013-05-26 02:50:00,
2013-05-25 22:55:00,41.0,33.3,29.73,West,270,3.0,13.0,74,0.00,,,-99.99,WeatherLink 5.5,2013-05-26 02:55:00,
2013-05-25 23:00:00,41.0,33.3,29.73,West,270,3.0,13.0,74,0.00,,,-99.99,WeatherLink 5.5,2013-05-26 03:00:00,
2013-05-25 23:05:00,40.9,33.2,29.72,West,270,6.0,20.0,74,0.00,,,-99.99,WeatherLink 5.5,2013-05-26 03:05:00,
2013-05-25 23:10:00,40.9,33.2,29.72,West,270,2.0,9.0,74,0.00,,,-99.99,WeatherLink 5.5,2013-05-26 03:10:00,
2013-05-25 23:15:00,40.9,33.2,29.72,West,270,2.0,9.0,74,0.00,,,-99.99,WeatherLink 5.5,2013-05-26 03:15:00,
2013-05-25 23:20:00,40.8,33.2,29.72,West,270,3.0,9.0,74,0.00,,,-99.99,WeatherLink 5.5,2013-05-26 03:20:00,
2013-05-25 23:25:00,40.8,33.2,29.72,WNW,292,2.0,9.0,74,0.00,,,-99.99,WeatherLink 5.5,2013-05-26 03:25:00,
2013-05-25 23:30:00,40.8,33.2,29.72,WNW,292,2.0,9.0,74,0.00,,,-99.99,WeatherLink 5.5,2013-05-26 03:30:00,
2013-05-25 23:35:00,40.6,33.0,29.72,SW,225,3.0,8.0,74,0.00,,,-99.99,WeatherLink 5.5,2013-05-26 03:35:00,
2013-05-25 23:40:00,40.6,33.0,29.72,West,270,3.0,8.0,74,0.00,,,-99.99,WeatherLink 5.5,2013-05-26 03:40:00,
2013-05-25 23:45:00,40.6,33.0,29.72,West,270,3.0,8.0,74,0.00,,,-99.99,WeatherLink 5.5,2013-05-26 03:45:00,
2013-05-25 23:50:00,40.5,32.9,29.72,SW,225,1.0,7.0,74,0.00,,,-99.99,WeatherLink 5.5,2013-05-26 03:50:00,
2013-05-25 23:55:00,40.3,32.7,29.72,West,270,3.0,8.0,74,0.00,,,-99.99,WeatherLink 5.5,2013-05-26 03:55:00,